sensor_id;sensor_type;location;lat;lon;timestamp;P1;durP1;ratioP1;P2;durP2;ratioP2
9186;SDS011;7273;48.902;9.410;2023-02-28T00:02:09;30.37;;;22.90;;
9186;SDS011;7273;48.902;9.410;2023-02-28T00:04:35;17.55;;;10.30;;
9186;SDS011;7273;48.902;9.410;2023-02-28T00:07:00;5.33;;;2.90;;
9186;SDS011;7273;48.902;9.410;2023-02-28T00:09:26;80.60;;;41.73;;
9186;SDS011;7273;48.902;9.410;2023-02-28T00:11:51;30.10;;;14.77;;
9186;SDS011;7273;48.902;9.410;2023-02-28T00:14:16;24.73;;;13.63;;
9186;SDS011;7273;48.902;9.410;2023-02-28T00:16:42;10.57;;;7.70;;
9186;SDS011;7273;48.902;9.410;2023-02-28T00:19:07;31.27;;;14.97;;
9186;SDS011;7273;48.902;9.410;2023-02-28T00:21:32;4.80;;;4.32;;
9186;SDS011;7273;48.902;9.410;2023-02-28T00:23:58;1.80;;;0.70;;
9186;SDS011;7273;48.902;9.410;2023-02-28T00:26:23;0.07;;;0.00;;
9186;SDS011;7273;48.902;9.410;2023-02-28T00:28:49;0.28;;;0.10;;
9186;SDS011;7273;48.902;9.410;2023-02-28T00:31:17;0.43;;;0.20;;
9186;SDS011;7273;48.902;9.410;2023-02-28T00:33:43;1.45;;;0.65;;
9186;SDS011;7273;48.902;9.410;2023-02-28T00:36:09;0.85;;;0.22;;
9186;SDS011;7273;48.902;9.410;2023-02-28T00:38:36;0.50;;;0.20;;
9186;SDS011;7273;48.902;9.410;2023-02-28T00:41:02;0.40;;;0.30;;
9186;SDS011;7273;48.902;9.410;2023-02-28T00:43:34;0.00;;;0.00;;
9186;SDS011;7273;48.902;9.410;2023-02-28T00:46:02;0.10;;;0.10;;
9186;SDS011;7273;48.902;9.410;2023-02-28T00:48:28;1.42;;;1.00;;
9186;SDS011;7273;48.902;9.410;2023-02-28T00:50:53;0.03;;;0.03;;
9186;SDS011;7273;48.902;9.410;2023-02-28T00:53:19;1.60;;;0.73;;
9186;SDS011;7273;48.902;9.410;2023-02-28T00:55:48;0.30;;;0.30;;
9186;SDS011;7273;48.902;9.410;2023-02-28T00:58:14;0.10;;;0.10;;
9186;SDS011;7273;48.902;9.410;2023-02-28T01:00:39;0.77;;;0.70;;
9186;SDS011;7273;48.902;9.410;2023-02-28T01:03:04;0.33;;;0.30;;
9186;SDS011;7273;48.902;9.410;2023-02-28T01:05:30;0.30;;;0.20;;
9186;SDS011;7273;48.902;9.410;2023-02-28T01:07:55;0.20;;;0.20;;
9186;SDS011;7273;48.902;9.410;2023-02-28T01:10:20;1.40;;;1.20;;
9186;SDS011;7273;48.902;9.410;2023-02-28T01:12:46;4.07;;;0.95;;
9186;SDS011;7273;48.902;9.410;2023-02-28T01:15:11;29.30;;;19.67;;
9186;SDS011;7273;48.902;9.410;2023-02-28T01:17:37;1.17;;;0.45;;
9186;SDS011;7273;48.902;9.410;2023-02-28T01:20:02;0.15;;;0.10;;
9186;SDS011;7273;48.902;9.410;2023-02-28T01:22:28;0.70;;;0.50;;
9186;SDS011;7273;48.902;9.410;2023-02-28T01:24:53;0.52;;;0.20;;
9186;SDS011;7273;48.902;9.410;2023-02-28T01:27:19;1.73;;;1.02;;
9186;SDS011;7273;48.902;9.410;2023-02-28T01:29:44;0.77;;;0.20;;
9186;SDS011;7273;48.902;9.410;2023-02-28T01:32:09;0.75;;;0.22;;
9186;SDS011;7273;48.902;9.410;2023-02-28T01:34:35;1.08;;;0.20;;
9186;SDS011;7273;48.902;9.410;2023-02-28T01:37:00;0.30;;;0.30;;
9186;SDS011;7273;48.902;9.410;2023-02-28T01:39:26;1.35;;;0.35;;
9186;SDS011;7273;48.902;9.410;2023-02-28T01:41:51;5.07;;;4.57;;
9186;SDS011;7273;48.902;9.410;2023-02-28T01:47:20;7.57;;;6.82;;
9186;SDS011;7273;48.902;9.410;2023-02-28T01:49:46;2.33;;;2.05;;
9186;SDS011;7273;48.902;9.410;2023-02-28T01:52:12;7.28;;;6.55;;
9186;SDS011;7273;48.902;9.410;2023-02-28T01:54:42;20.08;;;15.38;;
9186;SDS011;7273;48.902;9.410;2023-02-28T01:57:12;27.25;;;20.52;;
9186;SDS011;7273;48.902;9.410;2023-02-28T01:59:43;0.55;;;0.35;;
9186;SDS011;7273;48.902;9.410;2023-02-28T02:02:16;0.73;;;0.25;;
9186;SDS011;7273;48.902;9.410;2023-02-28T02:07:26;0.50;;;0.38;;
9186;SDS011;7273;48.902;9.410;2023-02-28T02:09:59;3.00;;;0.60;;
9186;SDS011;7273;48.902;9.410;2023-02-28T02:17:37;0.82;;;0.60;;
9186;SDS011;7273;48.902;9.410;2023-02-28T02:25:28;0.88;;;0.73;;
9186;SDS011;7273;48.902;9.410;2023-02-28T02:39:19;1.45;;;0.57;;
9186;SDS011;7273;48.902;9.410;2023-02-28T02:41:51;0.95;;;0.38;;
9186;SDS011;7273;48.902;9.410;2023-02-28T02:44:22;0.68;;;0.43;;
9186;SDS011;7273;48.902;9.410;2023-02-28T02:46:53;0.73;;;0.35;;
9186;SDS011;7273;48.902;9.410;2023-02-28T02:49:33;1.42;;;0.63;;
9186;SDS011;7273;48.902;9.410;2023-02-28T02:52:04;1.20;;;0.43;;
9186;SDS011;7273;48.902;9.410;2023-02-28T02:54:34;1.23;;;0.32;;
9186;SDS011;7273;48.902;9.410;2023-02-28T02:57:07;1.73;;;0.50;;
9186;SDS011;7273;48.902;9.410;2023-02-28T02:59:36;1.45;;;0.80;;
9186;SDS011;7273;48.902;9.410;2023-02-28T03:02:05;1.38;;;0.57;;
9186;SDS011;7273;48.902;9.410;2023-02-28T03:04:35;0.55;;;0.55;;
9186;SDS011;7273;48.902;9.410;2023-02-28T03:07:10;1.23;;;0.55;;
9186;SDS011;7273;48.902;9.410;2023-02-28T03:09:35;2.17;;;0.68;;
9186;SDS011;7273;48.902;9.410;2023-02-28T03:12:01;1.43;;;0.53;;
9186;SDS011;7273;48.902;9.410;2023-02-28T03:14:43;1.65;;;0.63;;
9186;SDS011;7273;48.902;9.410;2023-02-28T03:17:26;2.65;;;1.10;;
9186;SDS011;7273;48.902;9.410;2023-02-28T03:22:51;1.40;;;0.63;;
9186;SDS011;7273;48.902;9.410;2023-02-28T03:33:46;0.95;;;0.30;;
9186;SDS011;7273;48.902;9.410;2023-02-28T03:36:33;2.47;;;1.10;;
9186;SDS011;7273;48.902;9.410;2023-02-28T03:39:08;1.35;;;0.43;;
9186;SDS011;7273;48.902;9.410;2023-02-28T03:41:42;1.88;;;1.10;;
9186;SDS011;7273;48.902;9.410;2023-02-28T03:44:23;4.55;;;4.15;;
9186;SDS011;7273;48.902;9.410;2023-02-28T03:46:57;1.58;;;1.48;;
9186;SDS011;7273;48.902;9.410;2023-02-28T03:49:36;5.45;;;2.78;;
9186;SDS011;7273;48.902;9.410;2023-02-28T03:52:08;6.72;;;6.13;;
9186;SDS011;7273;48.902;9.410;2023-02-28T03:54:36;4.38;;;3.53;;
9186;SDS011;7273;48.902;9.410;2023-02-28T04:00:00;5.07;;;3.97;;
9186;SDS011;7273;48.902;9.410;2023-02-28T04:02:31;2.92;;;1.67;;
9186;SDS011;7273;48.902;9.410;2023-02-28T04:04:57;2.28;;;0.75;;
9186;SDS011;7273;48.902;9.410;2023-02-28T04:07:22;1.30;;;0.57;;
9186;SDS011;7273;48.902;9.410;2023-02-28T04:09:48;0.83;;;0.60;;
9186;SDS011;7273;48.902;9.410;2023-02-28T04:12:13;3.70;;;3.33;;
9186;SDS011;7273;48.902;9.410;2023-02-28T04:14:39;11.73;;;10.52;;
9186;SDS011;7273;48.902;9.410;2023-02-28T04:17:04;9.63;;;8.63;;
9186;SDS011;7273;48.902;9.410;2023-02-28T04:19:29;11.05;;;9.90;;
9186;SDS011;7273;48.902;9.410;2023-02-28T04:21:55;7.78;;;7.03;;
9186;SDS011;7273;48.902;9.410;2023-02-28T04:24:21;4.33;;;3.57;;
9186;SDS011;7273;48.902;9.410;2023-02-28T04:26:52;1.60;;;0.68;;
9186;SDS011;7273;48.902;9.410;2023-02-28T04:29:20;4.68;;;4.25;;
9186;SDS011;7273;48.902;9.410;2023-02-28T04:31:48;8.40;;;7.65;;
9186;SDS011;7273;48.902;9.410;2023-02-28T04:34:14;5.07;;;4.47;;
9186;SDS011;7273;48.902;9.410;2023-02-28T04:36:39;5.85;;;5.28;;
9186;SDS011;7273;48.902;9.410;2023-02-28T04:39:07;2.63;;;2.28;;
9186;SDS011;7273;48.902;9.410;2023-02-28T04:41:32;2.72;;;1.58;;
9186;SDS011;7273;48.902;9.410;2023-02-28T04:43:58;4.30;;;3.90;;
9186;SDS011;7273;48.902;9.410;2023-02-28T04:46:24;4.55;;;4.03;;
9186;SDS011;7273;48.902;9.410;2023-02-28T04:48:49;13.05;;;11.88;;
9186;SDS011;7273;48.902;9.410;2023-02-28T04:51:16;18.83;;;16.85;;
9186;SDS011;7273;48.902;9.410;2023-02-28T04:53:43;15.65;;;14.00;;
9186;SDS011;7273;48.902;9.410;2023-02-28T04:56:13;17.13;;;15.32;;
9186;SDS011;7273;48.902;9.410;2023-02-28T04:58:40;20.23;;;18.13;;
9186;SDS011;7273;48.902;9.410;2023-02-28T05:01:24;14.13;;;11.45;;
9186;SDS011;7273;48.902;9.410;2023-02-28T05:03:52;22.67;;;20.00;;
9186;SDS011;7273;48.902;9.410;2023-02-28T05:06:20;5.28;;;4.70;;
9186;SDS011;7273;48.902;9.410;2023-02-28T05:08:46;5.50;;;4.82;;
9186;SDS011;7273;48.902;9.410;2023-02-28T05:11:16;3.63;;;2.28;;
9186;SDS011;7273;48.902;9.410;2023-02-28T05:13:46;5.80;;;3.60;;
9186;SDS011;7273;48.902;9.410;2023-02-28T05:16:12;2.67;;;1.85;;
9186;SDS011;7273;48.902;9.410;2023-02-28T05:18:38;5.40;;;2.15;;
9186;SDS011;7273;48.902;9.410;2023-02-28T05:21:04;2.75;;;1.42;;
9186;SDS011;7273;48.902;9.410;2023-02-28T05:23:30;1.13;;;0.55;;
9186;SDS011;7273;48.902;9.410;2023-02-28T05:25:55;2.88;;;1.20;;
9186;SDS011;7273;48.902;9.410;2023-02-28T05:28:21;1.95;;;0.85;;
9186;SDS011;7273;48.902;9.410;2023-02-28T05:30:47;1.15;;;0.50;;
9186;SDS011;7273;48.902;9.410;2023-02-28T05:33:12;1.00;;;0.38;;
9186;SDS011;7273;48.902;9.410;2023-02-28T05:35:39;2.53;;;0.93;;
9186;SDS011;7273;48.902;9.410;2023-02-28T05:38:06;1.50;;;0.77;;
9186;SDS011;7273;48.902;9.410;2023-02-28T05:40:31;1.88;;;0.60;;
9186;SDS011;7273;48.902;9.410;2023-02-28T05:42:57;0.93;;;0.50;;
9186;SDS011;7273;48.902;9.410;2023-02-28T05:45:22;3.10;;;2.03;;
9186;SDS011;7273;48.902;9.410;2023-02-28T05:47:47;1.92;;;1.27;;
9186;SDS011;7273;48.902;9.410;2023-02-28T05:50:13;1.73;;;1.27;;
9186;SDS011;7273;48.902;9.410;2023-02-28T05:52:38;0.73;;;0.65;;
9186;SDS011;7273;48.902;9.410;2023-02-28T05:55:04;16.60;;;11.07;;
9186;SDS011;7273;48.902;9.410;2023-02-28T05:57:29;12.68;;;11.50;;
9186;SDS011;7273;48.902;9.410;2023-02-28T05:59:55;10.37;;;9.43;;
9186;SDS011;7273;48.902;9.410;2023-02-28T06:02:20;13.97;;;12.57;;
9186;SDS011;7273;48.902;9.410;2023-02-28T06:04:45;18.92;;;16.30;;
9186;SDS011;7273;48.902;9.410;2023-02-28T06:07:11;13.52;;;11.25;;
9186;SDS011;7273;48.902;9.410;2023-02-28T06:09:37;7.13;;;6.35;;
9186;SDS011;7273;48.902;9.410;2023-02-28T06:12:03;10.43;;;9.52;;
9186;SDS011;7273;48.902;9.410;2023-02-28T06:14:30;7.13;;;6.40;;
9186;SDS011;7273;48.902;9.410;2023-02-28T06:16:57;6.18;;;5.57;;
9186;SDS011;7273;48.902;9.410;2023-02-28T06:19:23;13.48;;;12.13;;
9186;SDS011;7273;48.902;9.410;2023-02-28T06:21:50;8.50;;;7.28;;
9186;SDS011;7273;48.902;9.410;2023-02-28T06:24:20;10.88;;;9.75;;
9186;SDS011;7273;48.902;9.410;2023-02-28T06:26:47;4.97;;;4.50;;
9186;SDS011;7273;48.902;9.410;2023-02-28T06:29:13;4.65;;;4.07;;
9186;SDS011;7273;48.902;9.410;2023-02-28T06:31:42;3.58;;;2.90;;
9186;SDS011;7273;48.902;9.410;2023-02-28T06:34:08;5.57;;;3.92;;
9186;SDS011;7273;48.902;9.410;2023-02-28T06:36:36;4.32;;;0.65;;
9186;SDS011;7273;48.902;9.410;2023-02-28T06:39:02;0.22;;;0.15;;
9186;SDS011;7273;48.902;9.410;2023-02-28T06:41:27;1.60;;;0.57;;
9186;SDS011;7273;48.902;9.410;2023-02-28T06:43:53;1.20;;;0.40;;
9186;SDS011;7273;48.902;9.410;2023-02-28T06:46:18;0.57;;;0.15;;
9186;SDS011;7273;48.902;9.410;2023-02-28T06:48:44;1.08;;;0.82;;
9186;SDS011;7273;48.902;9.410;2023-02-28T06:51:13;1.55;;;0.93;;
9186;SDS011;7273;48.902;9.410;2023-02-28T06:53:41;1.58;;;0.50;;
9186;SDS011;7273;48.902;9.410;2023-02-28T06:56:08;0.65;;;0.20;;
9186;SDS011;7273;48.902;9.410;2023-02-28T06:58:35;6.20;;;1.58;;
9186;SDS011;7273;48.902;9.410;2023-02-28T07:01:02;1.05;;;0.35;;
9186;SDS011;7273;48.902;9.410;2023-02-28T07:03:28;1.48;;;0.60;;
9186;SDS011;7273;48.902;9.410;2023-02-28T07:05:54;0.80;;;0.25;;
9186;SDS011;7273;48.902;9.410;2023-02-28T07:08:21;2.22;;;0.63;;
9186;SDS011;7273;48.902;9.410;2023-02-28T07:10:51;0.70;;;0.50;;
9186;SDS011;7273;48.902;9.410;2023-02-28T07:13:17;4.32;;;1.30;;
9186;SDS011;7273;48.902;9.410;2023-02-28T07:15:42;1.97;;;1.17;;
9186;SDS011;7273;48.902;9.410;2023-02-28T07:18:08;2.33;;;0.90;;
9186;SDS011;7273;48.902;9.410;2023-02-28T07:20:33;3.25;;;1.27;;
9186;SDS011;7273;48.902;9.410;2023-02-28T07:22:58;1.37;;;0.40;;
9186;SDS011;7273;48.902;9.410;2023-02-28T07:25:27;3.22;;;0.70;;
9186;SDS011;7273;48.902;9.410;2023-02-28T07:27:54;1.95;;;0.88;;
9186;SDS011;7273;48.902;9.410;2023-02-28T07:30:19;1.25;;;0.50;;
9186;SDS011;7273;48.902;9.410;2023-02-28T07:32:45;2.42;;;0.93;;
9186;SDS011;7273;48.902;9.410;2023-02-28T07:35:11;1.77;;;1.10;;
9186;SDS011;7273;48.902;9.410;2023-02-28T07:37:36;2.22;;;0.82;;
9186;SDS011;7273;48.902;9.410;2023-02-28T07:40:06;1.70;;;0.88;;
9186;SDS011;7273;48.902;9.410;2023-02-28T07:42:34;0.93;;;0.32;;
9186;SDS011;7273;48.902;9.410;2023-02-28T07:45:00;1.83;;;1.15;;
9186;SDS011;7273;48.902;9.410;2023-02-28T07:47:25;4.53;;;0.85;;
9186;SDS011;7273;48.902;9.410;2023-02-28T07:49:51;1.95;;;0.65;;
9186;SDS011;7273;48.902;9.410;2023-02-28T07:52:16;0.43;;;0.30;;
9186;SDS011;7273;48.902;9.410;2023-02-28T07:54:42;1.35;;;0.73;;
9186;SDS011;7273;48.902;9.410;2023-02-28T07:57:07;1.23;;;0.50;;
9186;SDS011;7273;48.902;9.410;2023-02-28T07:59:32;1.35;;;0.45;;
9186;SDS011;7273;48.902;9.410;2023-02-28T08:01:58;2.93;;;1.50;;
9186;SDS011;7273;48.902;9.410;2023-02-28T08:04:24;1.65;;;0.43;;
9186;SDS011;7273;48.902;9.410;2023-02-28T08:06:49;2.17;;;1.15;;
9186;SDS011;7273;48.902;9.410;2023-02-28T08:09:17;3.28;;;1.05;;
9186;SDS011;7273;48.902;9.410;2023-02-28T08:11:42;1.25;;;0.38;;
9186;SDS011;7273;48.902;9.410;2023-02-28T08:14:08;0.73;;;0.20;;
9186;SDS011;7273;48.902;9.410;2023-02-28T08:16:33;2.45;;;1.13;;
9186;SDS011;7273;48.902;9.410;2023-02-28T08:18:59;1.30;;;0.77;;
9186;SDS011;7273;48.902;9.410;2023-02-28T08:21:24;1.20;;;0.60;;
9186;SDS011;7273;48.902;9.410;2023-02-28T08:23:50;2.67;;;0.80;;
9186;SDS011;7273;48.902;9.410;2023-02-28T08:26:16;2.28;;;0.73;;
9186;SDS011;7273;48.902;9.410;2023-02-28T08:28:43;2.38;;;1.00;;
9186;SDS011;7273;48.902;9.410;2023-02-28T08:31:10;10.52;;;2.25;;
9186;SDS011;7273;48.902;9.410;2023-02-28T08:33:37;2.58;;;1.02;;
9186;SDS011;7273;48.902;9.410;2023-02-28T08:36:04;1.33;;;0.88;;
9186;SDS011;7273;48.902;9.410;2023-02-28T08:38:30;4.80;;;1.95;;
9186;SDS011;7273;48.902;9.410;2023-02-28T08:41:03;0.25;;;0.10;;
9186;SDS011;7273;48.902;9.410;2023-02-28T08:43:33;5.88;;;1.27;;
9186;SDS011;7273;48.902;9.410;2023-02-28T08:45:59;1.20;;;0.68;;
9186;SDS011;7273;48.902;9.410;2023-02-28T08:48:26;1.25;;;0.80;;
9186;SDS011;7273;48.902;9.410;2023-02-28T08:51:00;1.80;;;1.08;;
9186;SDS011;7273;48.902;9.410;2023-02-28T08:53:25;2.05;;;0.73;;
9186;SDS011;7273;48.902;9.410;2023-02-28T08:55:57;2.80;;;1.15;;
9186;SDS011;7273;48.902;9.410;2023-02-28T08:58:33;2.65;;;1.38;;
9186;SDS011;7273;48.902;9.410;2023-02-28T09:01:06;1.00;;;0.52;;
9186;SDS011;7273;48.902;9.410;2023-02-28T09:03:39;1.65;;;0.60;;
9186;SDS011;7273;48.902;9.410;2023-02-28T09:06:06;1.15;;;0.77;;
9186;SDS011;7273;48.902;9.410;2023-02-28T09:08:33;2.83;;;1.88;;
9186;SDS011;7273;48.902;9.410;2023-02-28T09:10:59;1.40;;;1.20;;
9186;SDS011;7273;48.902;9.410;2023-02-28T09:13:25;1.45;;;1.13;;
9186;SDS011;7273;48.902;9.410;2023-02-28T09:15:51;0.55;;;0.55;;
9186;SDS011;7273;48.902;9.410;2023-02-28T09:18:17;0.68;;;0.43;;
9186;SDS011;7273;48.902;9.410;2023-02-28T09:20:43;1.48;;;0.73;;
9186;SDS011;7273;48.902;9.410;2023-02-28T09:23:09;0.52;;;0.50;;
9186;SDS011;7273;48.902;9.410;2023-02-28T09:25:37;1.30;;;0.60;;
9186;SDS011;7273;48.902;9.410;2023-02-28T09:28:03;4.40;;;1.48;;
9186;SDS011;7273;48.902;9.410;2023-02-28T09:30:29;6.70;;;1.13;;
9186;SDS011;7273;48.902;9.410;2023-02-28T09:32:55;0.90;;;0.50;;
9186;SDS011;7273;48.902;9.410;2023-02-28T09:35:21;0.10;;;0.10;;
9186;SDS011;7273;48.902;9.410;2023-02-28T09:37:48;1.48;;;0.47;;
9186;SDS011;7273;48.902;9.410;2023-02-28T09:40:17;1.45;;;0.75;;
9186;SDS011;7273;48.902;9.410;2023-02-28T09:42:45;0.20;;;0.20;;
9186;SDS011;7273;48.902;9.410;2023-02-28T09:45:23;1.80;;;0.82;;
9186;SDS011;7273;48.902;9.410;2023-02-28T09:47:53;1.75;;;0.47;;
9186;SDS011;7273;48.902;9.410;2023-02-28T09:50:34;1.33;;;0.73;;
9186;SDS011;7273;48.902;9.410;2023-02-28T09:53:11;1.65;;;1.02;;
9186;SDS011;7273;48.902;9.410;2023-02-28T09:55:59;3.17;;;1.50;;
9186;SDS011;7273;48.902;9.410;2023-02-28T09:58:35;1.17;;;0.80;;
9186;SDS011;7273;48.902;9.410;2023-02-28T10:04:27;1.02;;;0.50;;
9186;SDS011;7273;48.902;9.410;2023-02-28T10:06:57;0.73;;;0.52;;
9186;SDS011;7273;48.902;9.410;2023-02-28T10:09:27;0.52;;;0.52;;
9186;SDS011;7273;48.902;9.410;2023-02-28T10:12:03;1.98;;;1.38;;
9186;SDS011;7273;48.902;9.410;2023-02-28T10:14:31;1.75;;;1.05;;
9186;SDS011;7273;48.902;9.410;2023-02-28T10:17:03;1.70;;;1.27;;
9186;SDS011;7273;48.902;9.410;2023-02-28T10:19:40;3.05;;;0.88;;
9186;SDS011;7273;48.902;9.410;2023-02-28T10:22:13;0.63;;;0.47;;
9186;SDS011;7273;48.902;9.410;2023-02-28T10:24:49;0.30;;;0.15;;
9186;SDS011;7273;48.902;9.410;2023-02-28T10:27:28;1.33;;;0.85;;
9186;SDS011;7273;48.902;9.410;2023-02-28T10:29:58;0.52;;;0.40;;
9186;SDS011;7273;48.902;9.410;2023-02-28T10:32:27;2.92;;;1.70;;
9186;SDS011;7273;48.902;9.410;2023-02-28T10:37:41;0.73;;;0.73;;
9186;SDS011;7273;48.902;9.410;2023-02-28T10:43:16;0.75;;;0.63;;
9186;SDS011;7273;48.902;9.410;2023-02-28T10:45:52;0.73;;;0.20;;
9186;SDS011;7273;48.902;9.410;2023-02-28T10:55:55;5.75;;;0.98;;
9186;SDS011;7273;48.902;9.410;2023-02-28T11:01:23;0.22;;;0.22;;
9186;SDS011;7273;48.902;9.410;2023-02-28T11:04:52;0.38;;;0.20;;
9186;SDS011;7273;48.902;9.410;2023-02-28T11:09:49;0.43;;;0.43;;
9186;SDS011;7273;48.902;9.410;2023-02-28T11:12:26;2.38;;;1.27;;
9186;SDS011;7273;48.902;9.410;2023-02-28T11:14:59;5.15;;;1.73;;
9186;SDS011;7273;48.902;9.410;2023-02-28T11:17:32;0.93;;;0.40;;
9186;SDS011;7273;48.902;9.410;2023-02-28T11:20:02;6.05;;;1.00;;
9186;SDS011;7273;48.902;9.410;2023-02-28T11:22:32;2.63;;;0.85;;
9186;SDS011;7273;48.902;9.410;2023-02-28T11:25:07;1.65;;;0.95;;
9186;SDS011;7273;48.902;9.410;2023-02-28T11:32:55;2.53;;;0.98;;
9186;SDS011;7273;48.902;9.410;2023-02-28T11:35:30;1.20;;;1.00;;
9186;SDS011;7273;48.902;9.410;2023-02-28T11:37:59;1.95;;;1.50;;
9186;SDS011;7273;48.902;9.410;2023-02-28T11:40:47;4.68;;;1.40;;
9186;SDS011;7273;48.902;9.410;2023-02-28T11:43:29;1.08;;;0.65;;
9186;SDS011;7273;48.902;9.410;2023-02-28T11:59:47;2.33;;;1.52;;
9186;SDS011;7273;48.902;9.410;2023-02-28T12:02:23;3.20;;;1.65;;
9186;SDS011;7273;48.902;9.410;2023-02-28T12:08:07;1.95;;;1.58;;
9186;SDS011;7273;48.902;9.410;2023-02-28T12:13:41;1.33;;;0.63;;
9186;SDS011;7273;48.902;9.410;2023-02-28T12:24:32;0.45;;;0.45;;
9186;SDS011;7273;48.902;9.410;2023-02-28T12:27:11;0.85;;;0.73;;
9186;SDS011;7273;48.902;9.410;2023-02-28T12:32:16;0.95;;;0.70;;
9186;SDS011;7273;48.902;9.410;2023-02-28T12:37:36;0.82;;;0.47;;
9186;SDS011;7273;48.902;9.410;2023-02-28T12:40:16;0.93;;;0.50;;
9186;SDS011;7273;48.902;9.410;2023-02-28T12:45:39;1.38;;;1.20;;
9186;SDS011;7273;48.902;9.410;2023-02-28T12:48:10;0.45;;;0.25;;
9186;SDS011;7273;48.902;9.410;2023-02-28T12:50:41;2.70;;;1.08;;
9186;SDS011;7273;48.902;9.410;2023-02-28T13:01:39;4.43;;;1.58;;
9186;SDS011;7273;48.902;9.410;2023-02-28T13:09:40;2.05;;;1.10;;
9186;SDS011;7273;48.902;9.410;2023-02-28T13:12:12;1.70;;;1.20;;
9186;SDS011;7273;48.902;9.410;2023-02-28T13:14:39;2.20;;;1.25;;
9186;SDS011;7273;48.902;9.410;2023-02-28T13:19:38;1.95;;;0.90;;
9186;SDS011;7273;48.902;9.410;2023-02-28T13:22:15;0.93;;;0.52;;
9186;SDS011;7273;48.902;9.410;2023-02-28T13:24:45;1.20;;;0.80;;
9186;SDS011;7273;48.902;9.410;2023-02-28T13:29:42;0.73;;;0.50;;
9186;SDS011;7273;48.902;9.410;2023-02-28T13:34:35;1.00;;;0.80;;
9186;SDS011;7273;48.902;9.410;2023-02-28T13:47:29;4.20;;;1.65;;
9186;SDS011;7273;48.902;9.410;2023-02-28T13:52:48;2.28;;;0.70;;
9186;SDS011;7273;48.902;9.410;2023-02-28T14:01:16;0.90;;;0.68;;
9186;SDS011;7273;48.902;9.410;2023-02-28T14:07:05;1.23;;;1.13;;
9186;SDS011;7273;48.902;9.410;2023-02-28T14:09:34;0.65;;;0.60;;
9186;SDS011;7273;48.902;9.410;2023-02-28T14:15:25;4.97;;;0.93;;
9186;SDS011;7273;48.902;9.410;2023-02-28T14:17:53;0.35;;;0.35;;
9186;SDS011;7273;48.902;9.410;2023-02-28T14:20:21;0.95;;;0.75;;
9186;SDS011;7273;48.902;9.410;2023-02-28T14:25:42;1.08;;;0.68;;
9186;SDS011;7273;48.902;9.410;2023-02-28T14:31:23;1.92;;;0.70;;
9186;SDS011;7273;48.902;9.410;2023-02-28T14:36:40;0.63;;;0.57;;
9186;SDS011;7273;48.902;9.410;2023-02-28T14:41:39;2.45;;;0.73;;
9186;SDS011;7273;48.902;9.410;2023-02-28T14:44:19;2.05;;;1.30;;
9186;SDS011;7273;48.902;9.410;2023-02-28T14:46:45;0.40;;;0.30;;
9186;SDS011;7273;48.902;9.410;2023-02-28T14:52:01;2.05;;;1.85;;
9186;SDS011;7273;48.902;9.410;2023-02-28T14:54:30;1.70;;;1.10;;
9186;SDS011;7273;48.902;9.410;2023-02-28T14:56:56;1.75;;;0.82;;
9186;SDS011;7273;48.902;9.410;2023-02-28T14:59:29;1.70;;;0.40;;
9186;SDS011;7273;48.902;9.410;2023-02-28T15:04:41;1.27;;;0.60;;
9186;SDS011;7273;48.902;9.410;2023-02-28T15:07:08;1.13;;;0.70;;
9186;SDS011;7273;48.902;9.410;2023-02-28T15:09:39;2.58;;;0.93;;
9186;SDS011;7273;48.902;9.410;2023-02-28T15:12:04;1.05;;;0.68;;
9186;SDS011;7273;48.902;9.410;2023-02-28T15:14:30;3.53;;;1.35;;
9186;SDS011;7273;48.902;9.410;2023-02-28T15:17:02;1.60;;;1.10;;
9186;SDS011;7273;48.902;9.410;2023-02-28T15:19:34;1.70;;;0.80;;
9186;SDS011;7273;48.902;9.410;2023-02-28T15:22:05;1.20;;;0.82;;
9186;SDS011;7273;48.902;9.410;2023-02-28T15:27:06;2.85;;;0.93;;
9186;SDS011;7273;48.902;9.410;2023-02-28T15:29:41;0.80;;;0.63;;
9186;SDS011;7273;48.902;9.410;2023-02-28T15:32:51;1.20;;;0.93;;
9186;SDS011;7273;48.902;9.410;2023-02-28T15:37:57;2.00;;;1.08;;
9186;SDS011;7273;48.902;9.410;2023-02-28T15:43:11;0.98;;;0.55;;
9186;SDS011;7273;48.902;9.410;2023-02-28T15:50:55;0.28;;;0.28;;
9186;SDS011;7273;48.902;9.410;2023-02-28T15:53:27;0.40;;;0.40;;
9186;SDS011;7273;48.902;9.410;2023-02-28T15:55:58;0.60;;;0.35;;
9186;SDS011;7273;48.902;9.410;2023-02-28T15:58:30;1.50;;;0.93;;
9186;SDS011;7273;48.902;9.410;2023-02-28T16:01:06;6.97;;;1.73;;
9186;SDS011;7273;48.902;9.410;2023-02-28T16:03:46;2.83;;;1.02;;
9186;SDS011;7273;48.902;9.410;2023-02-28T16:08:42;0.68;;;0.50;;
9186;SDS011;7273;48.902;9.410;2023-02-28T16:11:09;1.13;;;0.57;;
9186;SDS011;7273;48.902;9.410;2023-02-28T16:13:35;0.57;;;0.57;;
9186;SDS011;7273;48.902;9.410;2023-02-28T16:16:01;0.52;;;0.52;;
9186;SDS011;7273;48.902;9.410;2023-02-28T16:18:26;2.03;;;1.67;;
9186;SDS011;7273;48.902;9.410;2023-02-28T16:20:53;0.60;;;0.60;;
9186;SDS011;7273;48.902;9.410;2023-02-28T16:23:18;0.85;;;0.40;;
9186;SDS011;7273;48.902;9.410;2023-02-28T16:25:44;3.75;;;0.85;;
9186;SDS011;7273;48.902;9.410;2023-02-28T16:28:24;3.83;;;2.05;;
9186;SDS011;7273;48.902;9.410;2023-02-28T16:30:54;1.75;;;1.33;;
9186;SDS011;7273;48.902;9.410;2023-02-28T16:33:20;1.52;;;1.42;;
9186;SDS011;7273;48.902;9.410;2023-02-28T16:35:45;2.08;;;1.27;;
9186;SDS011;7273;48.902;9.410;2023-02-28T16:38:10;2.17;;;1.37;;
9186;SDS011;7273;48.902;9.410;2023-02-28T16:40:36;0.40;;;0.40;;
9186;SDS011;7273;48.902;9.410;2023-02-28T16:43:04;0.28;;;0.25;;
9186;SDS011;7273;48.902;9.410;2023-02-28T16:45:35;4.65;;;1.65;;
9186;SDS011;7273;48.902;9.410;2023-02-28T16:48:00;3.13;;;1.05;;
9186;SDS011;7273;48.902;9.410;2023-02-28T16:50:27;6.88;;;0.95;;
9186;SDS011;7273;48.902;9.410;2023-02-28T16:52:54;2.22;;;1.20;;
9186;SDS011;7273;48.902;9.410;2023-02-28T16:55:21;0.35;;;0.25;;
9186;SDS011;7273;48.902;9.410;2023-02-28T16:57:50;1.33;;;0.93;;
9186;SDS011;7273;48.902;9.410;2023-02-28T17:00:18;1.50;;;1.17;;
9186;SDS011;7273;48.902;9.410;2023-02-28T17:02:44;1.25;;;0.77;;
9186;SDS011;7273;48.902;9.410;2023-02-28T17:05:13;5.13;;;2.75;;
9186;SDS011;7273;48.902;9.410;2023-02-28T17:07:40;3.72;;;1.38;;
9186;SDS011;7273;48.902;9.410;2023-02-28T17:12:41;2.40;;;1.45;;
9186;SDS011;7273;48.902;9.410;2023-02-28T17:15:06;1.27;;;0.93;;
9186;SDS011;7273;48.902;9.410;2023-02-28T17:17:32;1.35;;;1.25;;
9186;SDS011;7273;48.902;9.410;2023-02-28T17:19:58;1.55;;;1.23;;
9186;SDS011;7273;48.902;9.410;2023-02-28T17:22:24;1.75;;;0.77;;
9186;SDS011;7273;48.902;9.410;2023-02-28T17:24:51;1.08;;;0.98;;
9186;SDS011;7273;48.902;9.410;2023-02-28T17:27:20;0.70;;;0.45;;
9186;SDS011;7273;48.902;9.410;2023-02-28T17:29:46;2.47;;;0.82;;
9186;SDS011;7273;48.902;9.410;2023-02-28T17:32:12;1.42;;;1.27;;
9186;SDS011;7273;48.902;9.410;2023-02-28T17:34:37;0.77;;;0.55;;
9186;SDS011;7273;48.902;9.410;2023-02-28T17:37:03;2.70;;;1.40;;
9186;SDS011;7273;48.902;9.410;2023-02-28T17:39:29;0.52;;;0.52;;
9186;SDS011;7273;48.902;9.410;2023-02-28T17:41:56;2.83;;;1.70;;
9186;SDS011;7273;48.902;9.410;2023-02-28T17:44:22;1.58;;;1.45;;
9186;SDS011;7273;48.902;9.410;2023-02-28T17:46:49;0.52;;;0.30;;
9186;SDS011;7273;48.902;9.410;2023-02-28T17:49:14;2.38;;;2.03;;
9186;SDS011;7273;48.902;9.410;2023-02-28T17:51:40;2.72;;;1.95;;
9186;SDS011;7273;48.902;9.410;2023-02-28T17:54:06;3.65;;;2.42;;
9186;SDS011;7273;48.902;9.410;2023-02-28T17:56:31;0.80;;;0.80;;
9186;SDS011;7273;48.902;9.410;2023-02-28T17:58:57;1.48;;;1.13;;
9186;SDS011;7273;48.902;9.410;2023-02-28T18:01:23;3.78;;;1.27;;
9186;SDS011;7273;48.902;9.410;2023-02-28T18:03:51;2.72;;;1.67;;
9186;SDS011;7273;48.902;9.410;2023-02-28T18:06:24;3.13;;;1.42;;
9186;SDS011;7273;48.902;9.410;2023-02-28T18:08:52;0.73;;;0.73;;
9186;SDS011;7273;48.902;9.410;2023-02-28T18:11:21;6.00;;;1.95;;
9186;SDS011;7273;48.902;9.410;2023-02-28T18:13:49;1.40;;;0.95;;
9186;SDS011;7273;48.902;9.410;2023-02-28T18:16:17;5.57;;;1.75;;
9186;SDS011;7273;48.902;9.410;2023-02-28T18:18:43;1.30;;;1.10;;
9186;SDS011;7273;48.902;9.410;2023-02-28T18:21:09;0.70;;;0.70;;
9186;SDS011;7273;48.902;9.410;2023-02-28T18:23:36;2.92;;;1.20;;
9186;SDS011;7273;48.902;9.410;2023-02-28T18:26:05;1.17;;;0.45;;
9186;SDS011;7273;48.902;9.410;2023-02-28T18:28:32;2.15;;;1.40;;
9186;SDS011;7273;48.902;9.410;2023-02-28T18:31:04;3.25;;;1.10;;